Time;durP1;ratioP1;P1;durP2;ratioP2;P2;SDS_P1;SDS_P2;PMS_P1;PMS_P2;Temp;Humidity;BMP_temperature;BMP_pressure;BME280_temperature;BME280_humidity;BME280_pressure;Samples;Min_cycle;Max_cycle;Signal;HPM_P1;HPM_P2
2023/04/22 00:01:20;;;;;;;40.72;12.02;;;;;;;6.83;100.00;162351.13;5091974;28;20024;-61
2023/04/22 00:03:45;;;;;;;36.00;10.90;;;;;;;6.71;100.00;162318.81;5093425;28;20051;-61
2023/04/22 00:06:12;;;;;;;18.70;13.45;;;;;;;6.64;100.00;162302.69;5090608;28;21276;-60
2023/04/22 00:08:37;;;;;;;14.82;11.75;;;;;;;6.58;100.00;162286.53;5092696;28;20518;-61
2023/04/22 00:11:03;;;;;;;21.95;15.35;;;;;;;6.57;100.00;162282.44;5091388;28;20089;-61
2023/04/22 00:13:28;;;;;;;23.52;15.85;;;;;;;6.61;100.00;162294.56;5092892;28;20533;-63
2023/04/22 00:15:53;;;;;;;15.75;13.65;;;;;;;6.61;100.00;162294.56;5090676;28;20044;-63
2023/04/22 00:18:19;;;;;;;23.60;15.52;;;;;;;6.61;100.00;162294.56;5092612;28;20035;-61
2023/04/22 00:20:45;;;;;;;24.05;17.65;;;;;;;6.61;100.00;162293.25;5091042;28;20051;-61
2023/04/22 00:23:12;;;;;;;16.73;12.27;;;;;;;6.60;100.00;162291.88;5092437;28;20375;-61
2023/04/22 00:25:38;;;;;;;15.85;12.93;;;;;;;6.55;100.00;162278.44;5090748;28;20047;-61
2023/04/22 00:28:04;;;;;;;17.17;13.52;;;;;;;6.44;100.00;162248.84;5092078;28;20024;-61
2023/04/22 00:30:29;;;;;;;20.80;9.52;;;;;;;6.30;100.00;162212.47;5089850;28;20044;-61
2023/04/22 00:32:55;;;;;;;15.80;11.50;;;;;;;6.25;100.00;162200.34;5091947;28;20486;-62
2023/04/22 00:35:20;;;;;;;12.48;10.38;;;;;;;6.16;100.00;162176.13;5090762;28;20044;-61
2023/04/22 00:37:46;;;;;;;14.63;12.93;;;;;;;6.10;100.00;162159.97;5092526;28;20028;-62
2023/04/22 00:40:11;;;;;;;12.88;9.20;;;;;;;6.07;100.00;162151.94;5074402;28;20393;-61
2023/04/22 00:42:37;;;;;;;16.77;13.85;;;;;;;6.06;100.00;162149.22;5071895;28;20024;-61
2023/04/22 00:45:03;;;;;;;19.52;13.50;;;;;;;5.97;100.00;162127.63;5077643;28;20044;-62
2023/04/22 00:47:31;;;;;;;21.67;15.88;;;;;;;5.95;100.00;162122.25;5091816;28;20032;-62
2023/04/22 00:49:57;;;;;;;23.35;10.50;;;;;;;5.90;100.00;162108.81;5090369;28;20040;-60
2023/04/22 00:52:23;;;;;;;17.95;14.45;;;;;;;5.86;100.00;162098.00;5092028;28;20023;-60
2023/04/22 00:54:48;;;;;;;253.48;30.20;;;;;;;5.87;100.00;162100.72;5090229;28;20039;-59
2023/04/22 00:57:14;;;;;;;280.17;22.80;;;;;;;5.85;100.00;162095.31;5091832;28;20093;-59
2023/04/22 00:59:39;;;;;;;129.65;13.38;;;;;;;5.79;100.00;162079.16;5083907;28;20041;-59
2023/04/22 01:02:05;;;;;;;22.65;11.98;;;;;;;5.70;100.00;162057.63;5071045;28;20024;-59
2023/04/22 01:04:31;;;;;;;21.15;12.55;;;;;;;5.67;100.00;162049.59;5070321;28;20036;-60
2023/04/22 01:06:56;;;;;;;22.13;14.15;;;;;;;5.68;100.00;162052.28;5071099;28;20413;-59
2023/04/22 01:09:22;;;;;;;14.05;11.98;;;;;;;5.66;100.00;162046.91;5069714;28;20037;-59
2023/04/22 01:11:47;;;;;;;13.00;9.18;;;;;;;5.64;100.00;162040.19;5071405;28;20073;-60
2023/04/22 01:14:13;;;;;;;15.70;12.93;;;;;;;5.60;100.00;162030.75;5069824;28;20518;-59
2023/04/22 01:16:39;;;;;;;11.88;10.68;;;;;;;5.57;100.00;162022.66;5071257;28;20025;-59
2023/04/22 01:19:05;;;;;;;20.13;9.63;;;;;;;5.52;100.00;162009.22;5069895;28;20044;-60
2023/04/22 01:21:33;;;;;;;76.55;15.85;;;;;;;5.44;100.00;161987.69;5071174;28;20126;-59
2023/04/22 01:23:59;;;;;;;444.02;32.28;;;;;;;5.46;100.00;161993.09;5069589;28;20028;-60
2023/04/22 01:26:25;;;;;;;13.75;11.68;;;;;;;5.41;100.00;161980.97;5071104;28;20021;-59
2023/04/22 01:28:50;;;;;;;14.50;11.23;;;;;;;5.37;100.00;161970.19;5069671;28;20039;-59
2023/04/22 01:31:15;;;;;;;68.35;12.10;;;;;;;5.35;100.00;161966.16;5071848;28;20021;-60
2023/04/22 01:33:41;;;;;;;31.48;10.18;;;;;;;5.31;100.00;161955.44;5071034;28;20056;-60
2023/04/22 01:36:07;;;;;;;118.07;12.77;;;;;;;5.26;100.00;161941.94;5069555;28;20044;-61
2023/04/22 01:38:33;;;;;;;49.38;12.95;;;;;;;5.22;100.00;161931.19;5070989;28;20467;-60
2023/04/22 01:41:01;;;;;;;15.68;10.30;;;;;;;5.19;100.00;161923.13;5069005;28;20040;-61
2023/04/22 01:43:29;;;;;;;126.30;12.98;;;;;;;5.17;100.00;161917.78;5071116;28;20097;-60
2023/04/22 01:45:55;;;;;;;11.85;8.48;;;;;;;5.12;100.00;161904.28;5068953;28;20049;-60
2023/04/22 01:48:20;;;;;;;41.63;15.88;;;;;;;5.14;100.00;161911.00;5070875;28;20032;-60
2023/04/22 01:50:46;;;;;;;23.15;15.32;;;;;;;5.16;100.00;161916.41;5069475;28;20051;-60
2023/04/22 01:53:11;;;;;;;22.92;16.55;;;;;;;5.15;100.00;161912.38;5070447;28;20479;-60
2023/04/22 01:55:37;;;;;;;17.02;14.40;;;;;;;5.22;100.00;161931.19;5069422;28;20100;-60
2023/04/22 01:58:03;;;;;;;25.77;18.20;;;;;;;5.25;100.00;161939.25;5070776;28;20085;-60
2023/04/22 02:00:29;;;;;;;49.50;17.50;;;;;;;5.26;100.00;161941.94;5069017;28;20033;-59
2023/04/22 02:02:54;;;;;;;15.30;11.85;;;;;;;5.24;100.00;161936.59;5070739;28;20438;-61
2023/04/22 02:05:19;;;;;;;82.72;13.40;;;;;;;5.23;100.00;161933.91;5069035;28;20458;-60
2023/04/22 02:07:45;;;;;;;63.25;14.68;;;;;;;5.25;100.00;161939.25;5070439;28;20020;-60
2023/04/22 02:10:10;;;;;;;27.10;18.30;;;;;;;5.21;100.00;161929.81;5069053;28;20565;-60
2023/04/22 02:12:36;;;;;;;25.27;18.92;;;;;;;5.32;100.00;161958.13;5070860;28;20028;-60
2023/04/22 02:15:01;;;;;;;21.83;16.50;;;;;;;5.31;100.00;161955.44;5068707;28;20487;-61
2023/04/22 02:17:27;;;;;;;34.67;21.63;;;;;;;5.35;100.00;161964.84;5070726;28;20024;-60
2023/04/22 02:19:53;;;;;;;17.20;14.50;;;;;;;5.34;100.00;161963.47;5069228;28;20052;-61
2023/04/22 02:22:18;;;;;;;21.75;15.48;;;;;;;5.32;100.00;161958.13;5069889;28;20040;-61
2023/04/22 02:24:44;;;;;;;26.80;16.75;;;;;;;5.27;100.00;161944.66;5069280;28;20384;-61
2023/04/22 02:27:09;;;;;;;18.85;16.63;;;;;;;5.34;100.00;161963.47;5070277;28;20016;-62
2023/04/22 02:29:34;;;;;;;17.13;14.30;;;;;;;5.34;100.00;161963.47;5068724;28;20037;-61
2023/04/22 02:32:00;;;;;;;43.92;12.15;;;;;;;5.35;100.00;161966.16;5070167;28;20024;-62
2023/04/22 02:34:25;;;;;;;82.72;17.05;;;;;;;5.32;100.00;161958.13;5070367;28;20028;-62
2023/04/22 02:36:51;;;;;;;26.50;18.00;;;;;;;5.35;100.00;161966.16;5068777;28;20048;-62
2023/04/22 02:39:16;;;;;;;23.35;16.30;;;;;;;5.39;100.00;161976.97;5070187;28;20032;-62
2023/04/22 02:41:42;;;;;;;20.17;14.60;;;;;;;5.37;100.00;161971.56;5068869;28;20040;-62
2023/04/22 02:44:07;;;;;;;20.08;14.48;;;;;;;5.47;100.00;161995.78;5069840;28;20408;-62
2023/04/22 02:46:32;;;;;;;19.13;15.20;;;;;;;5.47;100.00;161995.78;5068864;28;20407;-62
2023/04/22 02:48:58;;;;;;;19.50;15.65;;;;;;;5.49;100.00;162001.13;5070147;28;20081;-62
2023/04/22 02:51:23;;;;;;;22.45;16.55;;;;;;;5.48;100.00;161998.44;5068264;28;20036;-62
2023/04/22 02:53:48;;;;;;;16.83;13.65;;;;;;;5.50;100.00;162005.19;5073971;28;20032;-62
2023/04/22 02:56:14;;;;;;;25.77;16.10;;;;;;;5.50;100.00;162003.81;5072315;28;20644;-62
2023/04/22 02:58:39;;;;;;;26.80;19.63;;;;;;;5.48;100.00;161998.44;5073744;28;20379;-62
2023/04/22 03:01:04;;;;;;;32.33;23.23;;;;;;;5.50;100.00;162003.81;5072185;28;20041;-62
2023/04/22 03:03:30;;;;;;;55.00;21.20;;;;;;;5.52;100.00;162010.56;5073943;28;20077;-62
2023/04/22 03:05:56;;;;;;;26.67;20.20;;;;;;;5.54;100.00;162014.63;5072050;28;20044;-62
2023/04/22 03:08:21;;;;;;;35.72;26.08;;;;;;;5.58;100.00;162025.38;5073775;28;20078;-61
2023/04/22 03:10:47;;;;;;;46.22;29.60;;;;;;;5.65;100.00;162044.19;5072380;28;20040;-62
2023/04/22 03:13:13;;;;;;;50.75;33.30;;;;;;;5.71;100.00;162060.34;5073434;28;20510;-58
2023/04/22 03:15:41;;;;;;;61.15;36.47;;;;;;;5.80;100.00;162081.88;5071801;28;20131;-60
2023/04/22 03:18:06;;;;;;;63.67;36.97;;;;;;;5.88;100.00;162103.41;5073430;28;20108;-61
2023/04/22 03:20:32;;;;;;;67.90;38.45;;;;;;;5.95;100.00;162120.91;5071890;28;20044;-62
2023/04/22 03:22:58;;;;;;;61.95;39.30;;;;;;;6.01;100.00;162138.44;5073099;28;20111;-61
2023/04/22 03:25:23;;;;;;;55.60;36.92;;;;;;;6.06;100.00;162149.22;5072167;28;20487;-62
2023/04/22 03:27:49;;;;;;;60.17;36.60;;;;;;;6.07;100.00;162151.94;5073470;28;20096;-62
2023/04/22 03:30:14;;;;;;;68.57;45.75;;;;;;;6.11;100.00;162162.66;5071423;28;20276;-64
2023/04/22 03:32:39;;;;;;;64.80;41.75;;;;;;;6.17;100.00;162180.19;5073271;28;20028;-64
2023/04/22 03:35:05;;;;;;;64.95;44.00;;;;;;;6.21;100.00;162189.59;5071703;28;20115;-63
2023/04/22 03:37:31;;;;;;;71.00;42.22;;;;;;;6.23;100.00;162194.94;5073415;28;20437;-63
2023/04/22 03:39:56;;;;;;;73.47;43.42;;;;;;;6.25;100.00;162200.34;5071601;28;20036;-63
2023/04/22 03:42:21;;;;;;;68.13;43.25;;;;;;;6.28;100.00;162207.06;5073255;28;20032;-63
2023/04/22 03:44:47;;;;;;;76.25;44.80;;;;;;;6.33;100.00;162220.53;5071206;28;20490;-62
2023/04/22 03:47:12;;;;;;;78.82;47.15;;;;;;;6.42;100.00;162243.44;5072636;28;20028;-62
2023/04/22 03:49:37;;;;;;;84.72;50.67;;;;;;;6.49;100.00;162262.28;5071660;28;20041;-62
2023/04/22 03:52:03;;;;;;;77.75;50.08;;;;;;;6.51;100.00;162105.81;5072396;28;20402;-62
2023/04/22 03:54:28;;;;;;;73.32;49.10;;;;;;;6.55;100.00;161655.69;5071520;28;20040;-62
2023/04/22 03:56:54;;;;;;;68.47;44.20;;;;;;;6.60;100.00;160901.00;5073146;28;20352;-61
2023/04/22 03:59:19;;;;;;;77.95;45.28;;;;;;;6.64;100.00;160127.25;5070995;28;20086;-62
2023/04/22 04:01:45;;;;;;;66.85;41.88;;;;;;;6.65;100.00;159880.34;5072900;28;20036;-62
2023/04/22 04:04:10;;;;;;;64.22;43.28;;;;;;;6.62;100.00;159635.22;5071079;28;20173;-62
2023/04/22 04:06:36;;;;;;;73.13;47.10;;;;;;;6.63;100.00;159022.22;5072241;28;20130;-62
2023/04/22 04:09:02;;;;;;;74.47;49.72;;;;;;;6.72;100.00;158167.22;5071027;28;20029;-62
2023/04/22 04:11:28;;;;;;;74.25;47.58;;;;;;;6.79;100.00;156910.75;5073033;28;20400;-62
2023/04/22 04:13:53;;;;;;;73.47;48.35;;;;;;;6.82;100.00;156155.25;5078095;28;20042;-60
2023/04/22 04:16:18;;;;;;;71.10;45.13;;;;;;;6.79;100.00;155488.34;5092441;28;20028;-61
2023/04/22 04:18:44;;;;;;;67.75;43.20;;;;;;;6.81;100.00;154978.38;5084840;28;20036;-61
2023/04/22 04:21:09;;;;;;;66.47;42.50;;;;;;;6.79;100.00;154621.28;5090496;28;20067;-62
2023/04/22 04:23:34;;;;;;;67.13;46.05;;;;;;;6.82;100.00;153928.94;5093026;28;20012;-61
2023/04/22 04:26:01;;;;;;;69.38;46.83;;;;;;;6.79;100.00;153218.84;5090901;28;20036;-61
2023/04/22 04:28:31;;;;;;;66.03;45.55;;;;;;;6.87;100.00;152538.03;5092421;28;20028;-61
2023/04/22 04:30:56;;;;;;;76.60;48.83;;;;;;;6.91;100.00;151845.81;5090808;28;20144;-58
2023/04/22 04:33:21;;;;;;;67.63;45.22;;;;;;;6.94;100.00;151152.34;5090369;28;20389;-58
2023/04/22 04:35:47;;;;;;;65.70;46.10;;;;;;;6.96;100.00;150457.69;5090765;28;20036;-59
2023/04/22 04:38:13;;;;;;;67.30;47.78;;;;;;;7.01;100.00;149417.72;5092060;28;20494;-58
2023/04/22 04:40:38;;;;;;;64.32;46.50;;;;;;;7.06;100.00;148728.13;5091042;28;20073;-59
2023/04/22 04:43:07;;;;;;;68.55;45.60;;;;;;;7.09;100.00;147684.66;5090140;28;20012;-59
2023/04/22 04:45:32;;;;;;;60.83;41.83;;;;;;;7.11;100.00;146289.94;5081648;28;20040;-59
2023/04/22 04:47:59;;;;;;;60.72;43.78;;;;;;;7.19;100.00;145606.53;5091998;28;20077;-59
2023/04/22 04:50:26;;;;;;;58.60;42.67;;;;;;;7.23;100.00;144216.97;5090374;28;20036;-59
2023/04/22 04:52:52;;;;;;;66.28;44.65;;;;;;;7.28;100.00;143178.81;5092250;28;20378;-60
2023/04/22 04:55:18;;;;;;;66.63;43.50;;;;;;;7.32;100.00;142485.97;5087101;28;20138;-60
2023/04/22 04:57:44;;;;;;;68.20;44.03;;;;;;;7.28;100.00;141779.13;5084888;28;20032;-60
2023/04/22 05:00:10;;;;;;;58.58;39.72;;;;;;;7.29;100.00;140732.00;5090175;28;20062;-60
2023/04/22 05:02:35;;;;;;;59.50;43.65;;;;;;;7.26;100.00;140025.56;5089153;28;20471;-60
2023/04/22 05:05:01;;;;;;;60.55;40.53;;;;;;;7.28;100.00;139680.50;5069698;28;20036;-60
2023/04/22 05:07:26;;;;;;;68.78;42.40;;;;;;;7.29;100.00;138633.88;5071612;28;20051;-60
2023/04/22 05:09:52;;;;;;;66.13;45.80;;;;;;;7.28;100.00;138282.00;5070006;28;20032;-60
2023/04/22 05:12:17;;;;;;;67.68;45.92;;;;;;;7.29;100.00;137235.72;5070913;28;20036;-60
2023/04/22 05:14:43;;;;;;;67.75;44.65;;;;;;;7.30;100.00;136539.06;5070991;28;20028;-60
2023/04/22 05:17:08;;;;;;;71.72;45.97;;;;;;;7.33;100.00;135844.75;5074109;28;20062;-60
2023/04/22 05:19:34;;;;;;;57.63;42.15;;;;;;;7.34;100.00;134798.91;5070262;28;20090;-60
2023/04/22 05:21:59;;;;;;;62.85;42.03;;;;;;;7.24;100.00;134428.59;5069343;28;20052;-60
2023/04/22 05:24:24;;;;;;;63.08;42.92;;;;;;;7.30;100.00;133744.56;5071362;28;20071;-60
2023/04/22 05:26:50;;;;;;;69.25;42.80;;;;;;;7.30;100.00;133395.41;5069358;28;20036;-60
2023/04/22 05:29:15;;;;;;;58.65;41.50;;;;;;;7.27;100.00;132690.56;5071202;28;20028;-58
2023/04/22 05:31:40;;;;;;;70.28;44.13;;;;;;;7.36;100.00;132009.84;5069642;28;20041;-58
2023/04/22 05:34:06;;;;;;;68.50;45.83;;;;;;;7.40;100.00;130971.41;5070748;28;20138;-58
2023/04/22 05:36:31;;;;;;;67.93;43.60;;;;;;;7.36;100.00;130264.84;5069645;28;20037;-58
2023/04/22 05:38:57;;;;;;;66.80;45.00;;;;;;;7.51;100.00;129249.06;5070962;28;20615;-58
2023/04/22 05:41:22;;;;;;;72.65;45.45;;;;;;;7.57;100.00;128216.09;5069761;28;20041;-58
2023/04/22 05:43:47;;;;;;;57.38;41.30;;;;;;;7.62;100.00;127180.09;5070532;28;20025;-58
2023/04/22 05:46:13;;;;;;;58.75;39.85;;;;;;;7.68;100.00;126144.13;5069227;28;20051;-58
2023/04/22 05:48:38;;;;;;;55.33;35.90;;;;;;;7.74;100.00;124762.66;5070925;28;20521;-58
2023/04/22 05:51:03;;;;;;;60.20;43.42;;;;;;;7.75;100.00;124067.41;5068682;28;20062;-58
2023/04/22 05:53:29;;;;;;;55.97;41.95;;;;;;;7.78;100.00;123375.31;5070933;28;20052;-58
2023/04/22 05:55:54;;;;;;;60.05;41.63;;;;;;;7.83;100.00;122339.75;5069334;28;20032;-59
2023/04/22 05:58:19;;;;;;;62.83;43.72;;;;;;;7.89;100.00;120957.84;5070666;28;20021;-58
2023/04/22 06:00:45;;;;;;;67.07;42.90;;;;;;;7.93;100.00;119572.16;5069566;28;20126;-58
2023/04/22 06:03:10;;;;;;;59.85;43.75;;;;;;;8.02;100.00;118543.81;5070812;28;20062;-58
2023/04/22 06:05:36;;;;;;;64.78;43.85;;;;;;;8.13;100.00;117518.28;5068923;28;20115;-57
2023/04/22 06:08:01;;;;;;;56.40;41.00;;;;;;;8.27;100.00;115803.84;5070389;28;20031;-58
2023/04/22 06:10:27;;;;;;;51.60;40.45;;;;;;;8.38;100.00;114779.09;5069417;28;20040;-59
2023/04/22 06:12:52;;;;;;;47.45;35.97;;;;;;;8.44;100.00;113396.84;5070377;28;20120;-58
2023/04/22 06:15:17;;;;;;;49.15;37.00;;;;;;;8.55;100.00;112025.81;5068929;28;20059;-58
2023/04/22 06:17:43;;;;;;;45.97;34.58;;;;;;;8.68;100.00;110655.59;5070602;28;20032;-59
2023/04/22 06:20:10;;;;;;;47.47;36.90;;;;;;;8.72;100.00;109618.94;5068881;28;20040;-59
2023/04/22 06:22:35;;;;;;;46.22;34.17;;;;;;;8.71;100.00;109269.25;5070344;28;20617;-58
2023/04/22 06:25:01;;;;;;;39.17;32.47;;;;;;;8.72;100.00;108924.03;5068815;28;20025;-59
2023/04/22 06:27:26;;;;;;;40.78;33.90;;;;;;;8.79;100.00;108238.94;5071663;28;20429;-59
2023/04/22 06:29:52;;;;;;;35.53;30.55;;;;;;;8.89;100.00;107213.94;5073317;28;20411;-59
2023/04/22 06:32:17;;;;;;;44.35;33.92;;;;;;;8.97;100.00;106530.53;5074219;28;20020;-59
2023/04/22 06:34:42;;;;;;;40.92;32.95;;;;;;;9.09;100.00;105507.91;5072846;28;20040;-58
2023/04/22 06:37:08;;;;;;;34.83;30.20;;;;;;;9.18;100.00;104480.03;5074248;28;20024;-59
2023/04/22 06:39:33;;;;;;;37.55;30.70;;;;;;;9.32;100.00;103458.84;5073116;28;20086;-59
2023/04/22 06:42:00;;;;;;;33.05;28.17;;;;;;;9.44;100.00;102435.81;5073820;28;20517;-58
2023/04/22 06:44:26;;;;;;;32.10;28.55;;;;;;;9.56;100.00;101063.31;5073176;28;20033;-59
2023/04/22 06:46:51;;;;;;;32.92;28.10;;;;;;;9.76;100.00;99704.53;5074433;28;20025;-58
2023/04/22 06:49:16;;;;;;;29.63;25.55;;;;;;;9.88;100.00;98680.97;5072394;28;20483;-59
2023/04/22 06:51:42;;;;;;;30.90;27.00;;;;;;;10.06;100.00;97318.34;5074132;28;20021;-58
2023/04/22 06:54:07;;;;;;;29.95;26.23;;;;;;;10.15;100.00;96636.50;5072554;28;20537;-59
2023/04/22 06:56:32;;;;;;;26.42;22.45;;;;;;;10.33;100.00;95621.00;5073772;28;20020;-59
2023/04/22 06:58:58;;;;;;;29.65;25.88;;;;;;;10.42;100.00;95286.59;5072385;28;20078;-58
2023/04/22 07:01:23;;;;;;;26.10;23.35;;;;;;;10.58;100.00;95658.28;5074123;28;20020;-58
2023/04/22 07:03:48;;;;;;;21.55;18.80;;;;;;;10.68;100.00;96717.41;5073720;28;20476;-58
2023/04/22 07:06:14;;;;;;;23.70;19.85;;;;;;;10.83;100.00;98479.72;5071662;28;20719;-58
2023/04/22 07:08:39;;;;;;;33.80;19.67;;;;;;;10.94;100.00;101284.72;5073856;28;20032;-58
2023/04/22 07:11:05;;;;;;;19.42;17.45;;;;;;;11.10;100.00;105494.84;5071834;28;20041;-59
2023/04/22 07:13:32;;;;;;;21.17;18.08;;;;;;;11.22;100.00;111800.81;5073356;28;20025;-59
2023/04/22 07:15:59;;;;;;;18.40;16.45;;;;;;;11.37;100.00;123379.00;5070836;28;20518;-59
2023/04/22 07:18:24;;;;;;;18.45;16.42;;;;;;;11.80;100.00;136463.72;5072036;28;20020;-58
2023/04/22 07:20:50;;;;;;;15.82;14.38;;;;;;;12.61;100.00;154652.41;5070423;28;20067;-58
2023/04/22 07:23:15;;;;;;;14.35;12.77;;;;;;;13.00;100.00;163964.91;5071460;28;20025;-59
2023/04/22 07:25:40;;;;;;;14.95;11.93;;;;;;;14.09;100.00;164248.94;5069918;28;20621;-58
2023/04/22 07:28:06;;;;;;;12.63;11.45;;;;;;;15.35;100.00;164579.16;5071979;28;20379;-58
2023/04/22 07:30:31;;;;;;;9.27;8.38;;;;;;;16.15;100.00;164789.09;5068561;28;20051;-58
2023/04/22 07:32:56;;;;;;;9.27;8.38;;;;;;;17.12;100.00;165045.16;5070213;28;20115;-58
2023/04/22 07:35:22;;;;;;;9.23;8.30;;;;;;;17.60;100.00;165169.84;5070573;28;20389;-58
2023/04/22 07:37:47;;;;;;;9.57;8.68;;;;;;;18.09;100.00;165298.69;5071942;28;20029;-59
2023/04/22 07:40:13;;;;;;;7.82;7.03;;;;;;;18.71;100.00;165462.75;5069879;28;20663;-59
2023/04/22 07:42:39;;;;;;;7.03;6.32;;;;;;;19.02;100.00;165544.16;5072303;28;20020;-58
2023/04/22 07:45:05;;;;;;;8.73;6.97;;;;;;;18.62;100.00;165436.94;5070426;28;20204;-58
2023/04/22 07:47:31;;;;;;;11.95;8.27;;;;;;;18.82;100.00;165489.84;5070287;28;20038;-58
2023/04/22 07:49:56;;;;;;;8.20;6.68;;;;;;;19.09;100.00;165560.47;5070131;28;20044;-59
2023/04/22 07:52:21;;;;;;;12.65;6.70;;;;;;;19.23;100.00;165598.44;5072123;28;20029;-58
2023/04/22 07:54:47;;;;;;;8.38;6.63;;;;;;;19.72;100.00;165725.97;5070067;28;20028;-59
2023/04/22 07:57:12;;;;;;;6.22;5.63;;;;;;;19.78;100.00;165742.25;5071363;28;20029;-59
2023/04/22 07:59:38;;;;;;;5.70;4.75;;;;;;;19.56;100.00;165685.25;5070146;28;20115;-59
2023/04/22 08:02:03;;;;;;;6.28;5.63;;;;;;;19.83;100.00;165755.84;5071570;28;20475;-59
2023/04/22 08:04:28;;;;;;;5.35;4.85;;;;;;;19.90;100.00;165774.88;5070024;28;20499;-59
2023/04/22 08:06:54;;;;;;;5.88;5.28;;;;;;;19.83;100.00;165755.84;5071946;28;20368;-58
2023/04/22 08:09:20;;;;;;;4.78;4.28;;;;;;;19.48;100.00;165664.91;5070604;28;20033;-58
2023/04/22 08:11:45;;;;;;;6.03;3.85;;;;;;;19.27;100.00;165609.28;5071261;28;20025;-58
2023/04/22 08:14:11;;;;;;;5.45;4.90;;;;;;;18.64;100.00;165442.41;5069931;28;20036;-58
2023/04/22 08:16:38;;;;;;;5.03;4.50;;;;;;;18.64;100.00;165442.41;5071603;28;20028;-58
2023/04/22 08:19:04;;;;;;;6.97;5.43;;;;;;;18.87;100.00;165503.47;5069746;28;20387;-58
2023/04/22 08:21:30;;;;;;;4.80;4.30;;;;;;;18.93;100.00;165518.38;5035768;28;1034188;-58
2023/04/22 08:23:55;;;;;;;6.00;4.50;;;;;;;18.85;100.00;165498.00;5071028;28;20029;-58
2023/04/22 08:26:21;;;;;;;5.20;4.70;;;;;;;18.76;100.00;165473.59;5071351;28;20044;-58
2023/04/22 08:28:46;;;;;;;6.07;5.03;;;;;;;18.59;100.00;165430.19;5072499;28;20024;-58
2023/04/22 08:31:11;;;;;;;5.03;4.55;;;;;;;18.81;100.00;165487.13;5070637;28;20043;-59
2023/04/22 08:33:38;;;;;;;5.82;5.22;;;;;;;19.02;100.00;165544.16;5071746;28;20029;-59
2023/04/22 08:36:04;;;;;;;9.90;6.25;;;;;;;19.21;100.00;165593.00;5070468;28;20064;-58
2023/04/22 08:38:30;;;;;;;9.77;5.80;;;;;;;19.58;100.00;165690.69;5072113;28;20052;-59
2023/04/22 08:40:56;;;;;;;5.20;4.13;;;;;;;19.80;100.00;165747.69;5069730;28;20051;-58
2023/04/22 08:43:24;;;;;;;6.25;4.53;;;;;;;20.06;100.00;165815.59;5071747;28;20019;-58
2023/04/22 08:45:49;;;;;;;6.63;5.15;;;;;;;20.11;100.00;165829.16;5070647;28;20054;-59
2023/04/22 08:48:16;;;;;;;5.97;4.63;;;;;;;19.82;100.00;165753.13;5071433;28;20500;-58
2023/04/22 08:50:41;;;;;;;4.50;4.05;;;;;;;19.39;100.00;165639.16;5069238;28;20499;-58
2023/04/22 08:53:07;;;;;;;5.13;4.72;;;;;;;19.34;100.00;165628.28;5070500;28;20032;-58
2023/04/22 08:55:33;;;;;;;4.82;4.07;;;;;;;19.14;100.00;165574.03;5068453;28;20052;-58
2023/04/22 08:58:00;;;;;;;6.47;5.32;;;;;;;19.14;100.00;165575.34;5070579;28;20138;-58
2023/04/22 09:00:26;;;;;;;7.32;6.35;;;;;;;18.90;100.00;165511.56;5069099;28;20119;-59
2023/04/22 09:02:52;;;;;;;5.70;5.10;;;;;;;18.66;100.00;165449.16;5070389;28;20549;-59
2023/04/22 09:05:21;;;;;;;7.53;4.50;;;;;;;18.87;100.00;165503.47;5069237;28;20033;-58
2023/04/22 09:07:46;;;;;;;5.47;4.97;;;;;;;19.20;100.00;165588.94;5070882;28;20479;-59
2023/04/22 09:10:12;;;;;;;5.07;4.57;;;;;;;19.21;100.00;165593.00;5069497;28;20033;-59
2023/04/22 09:12:40;;;;;;;7.72;4.88;;;;;;;19.18;100.00;165584.84;5058153;28;20025;-59
2023/04/22 09:15:06;;;;;;;5.72;5.13;;;;;;;18.87;100.00;165503.47;5049792;28;20055;-59
2023/04/22 09:17:33;;;;;;;4.65;4.20;;;;;;;18.57;100.00;165424.78;5051388;28;20367;-61
2023/04/22 09:20:00;;;;;;;6.65;4.40;;;;;;;18.34;100.00;165365.13;5049654;28;20048;-61
2023/04/22 09:22:27;;;;;;;5.53;4.78;;;;;;;18.13;100.00;165308.19;5051365;28;20128;-61
2023/04/22 09:24:52;;;;;;;7.55;4.97;;;;;;;17.78;100.00;165217.31;5049653;28;20139;-61
2023/04/22 09:27:18;;;;;;;6.95;4.78;;;;;;;17.58;100.00;165164.44;5050990;28;20025;-61
2023/04/22 09:29:48;;;;;;;5.30;4.57;;;;;;;17.51;100.00;165145.44;5049786;28;20040;-61
2023/04/22 09:32:14;;;;;;;5.90;5.20;;;;;;;17.43;100.00;165126.47;5050637;28;20060;-61
2023/04/22 09:34:46;;;;;;;6.30;5.05;;;;;;;17.59;100.00;165167.16;5049733;28;20114;-61
2023/04/22 09:37:11;;;;;;;6.35;5.53;;;;;;;17.66;100.00;165186.13;5051156;28;20041;-61
2023/04/22 09:39:36;;;;;;;5.65;4.30;;;;;;;17.89;100.00;165245.75;5049447;28;20561;-61
2023/04/22 09:42:02;;;;;;;5.28;4.55;;;;;;;18.16;100.00;165317.69;5052551;28;20033;-61
2023/04/22 09:44:27;;;;;;;6.20;4.20;;;;;;;18.57;100.00;165424.78;5069658;28;20036;-61
2023/04/22 09:46:53;;;;;;;4.53;4.13;;;;;;;18.97;100.00;165530.59;5070448;28;20020;-61
2023/04/22 09:49:20;;;;;;;7.22;4.63;;;;;;;19.08;100.00;165557.75;5069317;28;20040;-62
2023/04/22 09:51:45;;;;;;;4.15;3.70;;;;;;;19.22;100.00;165595.72;5070648;28;20020;-62
2023/04/22 09:54:10;;;;;;;4.82;4.43;;;;;;;19.46;100.00;165658.16;5068879;28;20032;-61
2023/04/22 09:56:48;;;;;;;5.47;4.47;;;;;;;19.83;100.00;165755.84;5070778;28;20032;-62
2023/04/22 09:59:20;;;;;;;4.07;3.37;;;;;;;20.44;100.00;165917.38;5069292;28;20040;-61
2023/04/22 10:01:46;;;;;;;5.78;3.97;;;;;;;20.69;100.00;165981.19;5070228;28;20353;-62
2023/04/22 10:04:13;;;;;;;6.22;3.92;;;;;;;20.77;100.00;166002.97;5066154;28;20041;-61
2023/04/22 10:06:39;;;;;;;5.78;4.32;;;;;;;20.70;100.00;165985.25;5070697;28;20093;-61
2023/04/22 10:09:04;;;;;;;11.05;3.60;;;;;;;20.66;100.00;165973.06;5068437;28;20104;-61
2023/04/22 10:11:31;;;;;;;4.13;3.75;;;;;;;20.86;100.00;166027.41;5070652;28;20097;-61
2023/04/22 10:13:57;;;;;;;9.52;3.70;;;;;;;20.98;100.00;166057.25;5068836;28;20112;-61
2023/04/22 10:16:24;;;;;;;5.90;3.70;;;;;;;21.03;100.00;166072.22;5070614;28;20127;-61
2023/04/22 10:18:53;;;;;;;3.67;3.23;;;;;;;20.74;100.00;165994.78;5070629;28;20463;-61
2023/04/22 10:21:20;;;;;;;4.85;3.90;;;;;;;20.75;100.00;165997.53;5069004;28;20076;-61
2023/04/22 10:23:46;;;;;;;7.05;5.10;;;;;;;20.75;100.00;165997.53;5070526;28;20094;-61
2023/04/22 10:26:12;;;;;;;5.65;3.65;;;;;;;21.32;100.00;166148.25;5068878;28;20090;-61
2023/04/22 10:28:42;;;;;;;5.97;4.57;;;;;;;21.53;100.00;166203.94;5070409;28;20024;-61
2023/04/22 10:31:22;;;;;;;7.95;4.32;;;;;;;21.77;100.00;166266.50;5068568;28;20500;-62
2023/04/22 10:33:48;;;;;;;5.00;4.47;;;;;;;21.93;100.00;166308.59;5070735;28;20034;-61
2023/04/22 10:36:13;;;;;;;8.18;4.90;;;;;;;21.86;100.00;166289.56;5068767;28;20055;-62
2023/04/22 10:38:41;;;;;;;12.45;5.57;;;;;;;21.51;100.00;166198.50;5070195;28;20020;-62
2023/04/22 10:41:12;;;;;;;5.25;4.00;;;;;;;21.26;100.00;166131.97;5068667;28;20388;-62
2023/04/22 10:43:42;;;;;;;7.18;4.32;;;;;;;20.90;100.00;166036.91;5070302;28;20019;-62
2023/04/22 10:46:31;;;;;;;6.82;4.65;;;;;;;20.53;100.00;165939.13;5068394;28;20040;-62
2023/04/22 10:48:57;;;;;;;7.40;4.63;;;;;;;20.35;100.00;165892.94;5068582;28;20044;-61
2023/04/22 10:51:51;;;;;;;9.20;5.25;;;;;;;20.42;100.00;165911.94;5070313;28;20029;-61
2023/04/22 10:54:28;;;;;;;4.68;4.18;;;;;;;20.60;100.00;165959.47;5065854;28;20037;-62
2023/04/22 10:57:09;;;;;;;6.07;4.85;;;;;;;20.79;100.00;166008.41;5070327;28;20055;-62
2023/04/22 10:59:45;;;;;;;6.18;5.63;;;;;;;20.89;100.00;166035.53;5068917;28;20040;-62
2023/04/22 11:02:12;;;;;;;5.75;4.63;;;;;;;20.56;100.00;165948.63;5070056;28;20502;-62
2023/04/22 11:04:38;;;;;;;6.77;4.27;;;;;;;20.88;100.00;166032.84;5068801;28;20495;-62
2023/04/22 11:07:25;;;;;;;7.15;5.00;;;;;;;21.62;100.00;166225.75;5070226;28;20495;-62